Time;durP1;ratioP1;P1;durP2;ratioP2;P2;SDS_P1;SDS_P2;PMS_P1;PMS_P2;Temp;Humidity;BMP_temperature;BMP_pressure;BME280_temperature;BME280_humidity;BME280_pressure;Samples;Min_cycle;Max_cycle;Signal;HPM_P1;HPM_P2
2022/08/05 00:01:12;;;;;;;4.00;2.90;;;29.20;31.30;;;;;;5015157;28;20477;-43
2022/08/05 00:03:38;;;;;;;4.50;3.00;;;29.20;31.30;;;;;;5015054;28;20402;-43
2022/08/05 00:06:04;;;;;;;4.50;2.97;;;29.10;31.20;;;;;;5014744;28;20413;-43
2022/08/05 00:08:29;;;;;;;3.83;2.93;;;29.10;31.20;;;;;;5014763;28;20178;-43
2022/08/05 00:10:57;;;;;;;5.17;3.10;;;29.00;31.30;;;;;;5014800;28;20436;-43
2022/08/05 00:13:23;;;;;;;5.33;3.40;;;29.00;31.60;;;;;;5014678;28;20245;-42
2022/08/05 00:15:48;;;;;;;6.80;3.87;;;29.00;31.60;;;;;;5013726;28;20453;-42
2022/08/05 00:18:14;;;;;;;4.37;3.70;;;29.00;31.50;;;;;;5014947;28;20175;-42
2022/08/05 00:20:40;;;;;;;4.30;3.50;;;28.90;31.10;;;;;;5014634;28;20677;-43
2022/08/05 00:23:06;;;;;;;3.60;3.20;;;28.90;31.30;;;;;;5014776;28;20408;-43
2022/08/05 00:25:32;;;;;;;3.73;2.80;;;28.90;31.90;;;;;;5014686;28;20174;-43
2022/08/05 00:27:58;;;;;;;4.27;3.60;;;28.70;31.70;;;;;;5014608;28;20429;-42
2022/08/05 00:30:24;;;;;;;5.03;3.73;;;28.70;32.00;;;;;;5014498;28;20218;-43
2022/08/05 00:32:50;;;;;;;3.90;3.50;;;28.70;32.30;;;;;;5014511;28;20425;-43
2022/08/05 00:35:16;;;;;;;4.30;3.90;;;28.60;32.10;;;;;;5014265;28;20406;-42
2022/08/05 00:37:42;;;;;;;3.60;3.10;;;28.50;32.30;;;;;;5014118;28;20654;-42
2022/08/05 00:40:08;;;;;;;3.47;3.00;;;28.50;32.40;;;;;;5014143;28;20214;-43
2022/08/05 00:42:36;;;;;;;10.30;3.60;;;28.40;32.30;;;;;;5014276;28;20178;-43
2022/08/05 00:45:04;;;;;;;6.13;4.00;;;28.40;32.20;;;;;;5014219;28;20409;-43
2022/08/05 00:47:40;;;;;;;3.90;3.40;;;28.30;32.60;;;;;;5013899;28;20408;-42
2022/08/05 00:50:07;;;;;;;3.97;3.27;;;28.30;32.20;;;;;;5014216;28;20434;-43
2022/08/05 00:52:33;;;;;;;4.20;3.20;;;28.30;32.30;;;;;;5014116;28;20523;-43
2022/08/05 00:54:59;;;;;;;5.83;3.60;;;28.30;32.20;;;;;;5014113;28;20501;-43
2022/08/05 00:57:24;;;;;;;4.73;3.73;;;28.30;32.20;;;;;;5013798;28;20636;-43
2022/08/05 00:59:50;;;;;;;3.97;3.57;;;28.30;32.20;;;;;;5013890;28;20182;-42
2022/08/05 01:02:16;;;;;;;4.00;3.20;;;28.20;32.50;;;;;;5014183;28;20190;-42
2022/08/05 01:04:42;;;;;;;4.33;3.43;;;28.20;32.30;;;;;;5014052;28;20433;-42
2022/08/05 01:07:08;;;;;;;6.70;3.40;;;28.20;32.70;;;;;;5013612;28;20167;-43
2022/08/05 01:09:34;;;;;;;4.20;3.43;;;28.10;32.70;;;;;;5013698;28;20688;-42
2022/08/05 01:12:07;;;;;;;4.03;3.50;;;28.10;32.70;;;;;;5013837;28;20414;-43
2022/08/05 01:14:40;;;;;;;4.87;3.83;;;28.00;32.90;;;;;;5013981;28;20159;-42
2022/08/05 01:17:10;;;;;;;4.07;3.20;;;28.00;32.90;;;;;;5013319;28;20475;-43
2022/08/05 01:19:40;;;;;;;5.20;3.03;;;27.90;32.50;;;;;;5013459;28;20477;-43
2022/08/05 01:22:41;;;;;;;4.80;3.70;;;27.90;32.60;;;;;;5013558;28;20397;-43
2022/08/05 01:25:46;;;;;;;4.20;3.33;;;27.90;32.70;;;;;;5013324;28;20400;-42
2022/08/05 01:28:34;;;;;;;5.03;3.63;;;27.90;32.90;;;;;;4963465;28;20405;-43
2022/08/05 01:31:14;;;;;;;4.20;3.53;;;27.80;32.80;;;;;;5013435;28;20915;-43
2022/08/05 01:34:12;;;;;;;4.10;3.53;;;27.80;33.00;;;;;;5013388;28;20378;-42
2022/08/05 01:36:53;;;;;;;4.13;3.50;;;27.70;33.10;;;;;;4959203;28;20600;-43
2022/08/05 01:39:21;;;;;;;4.43;3.40;;;27.70;33.10;;;;;;5013188;28;20508;-43
2022/08/05 01:41:49;;;;;;;4.63;4.00;;;27.60;33.20;;;;;;5013255;28;20937;-43
2022/08/05 01:44:16;;;;;;;4.70;4.03;;;27.60;33.00;;;;;;5013115;28;20425;-41
2022/08/05 01:46:43;;;;;;;4.80;4.20;;;27.60;33.10;;;;;;5012894;28;20905;-43
2022/08/05 01:49:14;;;;;;;4.73;4.03;;;27.60;33.40;;;;;;5013038;28;20924;-42
2022/08/05 01:51:41;;;;;;;3.93;3.40;;;27.60;33.30;;;;;;5013416;28;20410;-43
2022/08/05 01:54:08;;;;;;;4.30;3.77;;;27.60;33.40;;;;;;5012974;28;20409;-42
2022/08/05 01:56:38;;;;;;;4.30;3.80;;;27.50;33.70;;;;;;5012872;28;20452;-43
2022/08/05 01:59:09;;;;;;;4.60;4.10;;;27.40;33.70;;;;;;5012990;28;20429;-43
2022/08/05 02:01:35;;;;;;;4.13;3.73;;;27.40;33.70;;;;;;5013163;28;20505;-43
2022/08/05 02:04:02;;;;;;;5.07;4.30;;;27.30;34.00;;;;;;5013199;28;20406;-42
2022/08/05 02:06:28;;;;;;;5.10;4.50;;;27.30;34.00;;;;;;5012587;28;20405;-42
2022/08/05 02:08:55;;;;;;;4.03;3.60;;;27.30;34.10;;;;;;5012684;28;20447;-42
2022/08/05 02:11:22;;;;;;;4.03;3.13;;;27.20;34.20;;;;;;5012707;28;20420;-43
2022/08/05 02:14:16;;;;;;;4.57;4.17;;;27.20;34.20;;;;;;5012775;28;20414;-42
2022/08/05 02:16:54;;;;;;;5.00;4.10;;;27.20;34.40;;;;;;5012498;28;20449;-42
2022/08/05 02:19:30;;;;;;;5.77;4.17;;;27.20;34.30;;;;;;5012539;28;20417;-42
2022/08/05 02:22:14;;;;;;;3.97;3.43;;;27.20;34.40;;;;;;5012618;28;20401;-43
2022/08/05 02:24:48;;;;;;;3.50;3.10;;;27.20;34.40;;;;;;5012619;28;20409;-43
2022/08/05 02:27:15;;;;;;;5.47;3.97;;;27.10;34.70;;;;;;5012321;28;20476;-43
2022/08/05 02:29:43;;;;;;;4.23;3.70;;;27.00;34.70;;;;;;5012422;28;20957;-43
2022/08/05 02:32:12;;;;;;;4.00;3.43;;;27.00;34.40;;;;;;5012667;28;20500;-43
2022/08/05 02:34:38;;;;;;;4.73;3.33;;;27.00;34.50;;;;;;5012486;28;20492;-43
2022/08/05 02:37:08;;;;;;;4.70;3.60;;;27.00;34.40;;;;;;5011478;28;20515;-42
2022/08/05 02:39:38;;;;;;;6.80;4.63;;;27.00;34.60;;;;;;5012333;28;20449;-43
2022/08/05 02:42:06;;;;;;;6.80;4.60;;;26.90;34.30;;;;;;5012311;28;20949;-43
2022/08/05 02:44:35;;;;;;;4.43;4.03;;;26.90;34.40;;;;;;5012340;28;20405;-42
2022/08/05 02:47:04;;;;;;;3.77;3.40;;;26.80;34.60;;;;;;5011963;28;20405;-42
2022/08/05 02:49:43;;;;;;;5.87;4.20;;;26.80;34.50;;;;;;5012235;28;20421;-42
2022/08/05 02:52:16;;;;;;;4.13;3.73;;;26.80;34.60;;;;;;5012286;28;20825;-42
2022/08/05 02:54:43;;;;;;;6.57;3.93;;;26.70;34.30;;;;;;5012334;28;20417;-43
2022/08/05 02:57:19;;;;;;;4.20;3.17;;;26.70;34.40;;;;;;5011894;28;20460;-43
2022/08/05 02:59:47;;;;;;;4.60;3.50;;;26.70;34.50;;;;;;5012352;28;20421;-42
2022/08/05 03:02:16;;;;;;;6.60;3.80;;;26.70;34.40;;;;;;5012401;28;20460;-43
2022/08/05 03:04:43;;;;;;;5.20;4.13;;;26.70;34.70;;;;;;5012504;28;20410;-43
2022/08/05 03:07:09;;;;;;;5.20;3.43;;;26.60;34.80;;;;;;5011926;28;20417;-41
2022/08/05 03:09:36;;;;;;;5.90;4.20;;;26.60;35.20;;;;;;5012061;28;20442;-43
2022/08/05 03:12:03;;;;;;;6.37;4.27;;;26.50;35.20;;;;;;5012020;28;20409;-43
2022/08/05 03:14:29;;;;;;;5.30;4.20;;;26.50;35.60;;;;;;5012098;28;20796;-43
2022/08/05 03:16:54;;;;;;;5.70;4.20;;;26.40;35.20;;;;;;5011743;28;20449;-43
2022/08/05 03:19:20;;;;;;;4.57;4.00;;;26.40;35.30;;;;;;5011927;28;20245;-42
2022/08/05 03:21:46;;;;;;;5.90;3.83;;;26.40;35.40;;;;;;5012034;28;20195;-42
2022/08/05 03:24:12;;;;;;;4.60;4.03;;;26.30;35.60;;;;;;5011922;28;20531;-42
2022/08/05 03:26:38;;;;;;;4.87;4.10;;;26.30;35.30;;;;;;5011767;28;20199;-42
2022/08/05 03:29:04;;;;;;;7.60;4.07;;;26.30;35.40;;;;;;5011869;28;20449;-43
2022/08/05 03:31:31;;;;;;;6.03;4.20;;;26.30;35.30;;;;;;5011916;28;20758;-43
2022/08/05 03:33:58;;;;;;;6.40;4.50;;;26.30;35.30;;;;;;5012192;28;20817;-43
2022/08/05 03:36:24;;;;;;;6.50;3.70;;;26.30;35.00;;;;;;5011778;28;20457;-42
2022/08/05 03:38:50;;;;;;;4.07;3.40;;;26.30;35.00;;;;;;5011504;28;20422;-43
2022/08/05 03:41:16;;;;;;;9.63;3.53;;;26.30;34.90;;;;;;4994274;28;20743;-42
2022/08/05 03:43:42;;;;;;;8.30;4.30;;;26.40;35.60;;;;;;5011787;28;20584;-42
2022/08/05 03:46:07;;;;;;;6.00;4.03;;;26.40;34.80;;;;;;5011390;28;20183;-42
2022/08/05 03:48:33;;;;;;;4.17;3.77;;;26.40;34.80;;;;;;5012612;28;20241;-43
2022/08/05 03:51:02;;;;;;;4.20;3.80;;;26.40;34.70;;;;;;5015250;28;20198;-43
2022/08/05 03:53:36;;;;;;;8.70;5.03;;;26.40;34.80;;;;;;5015231;28;20171;-42
2022/08/05 03:56:20;;;;;;;4.70;4.13;;;26.40;34.80;;;;;;5014964;28;20437;-43
2022/08/05 03:58:48;;;;;;;4.37;3.47;;;26.40;34.90;;;;;;5015165;28;20425;-42
2022/08/05 04:01:18;;;;;;;5.20;4.13;;;26.40;35.20;;;;;;4997379;28;20426;-42
2022/08/05 04:03:47;;;;;;;5.03;4.20;;;26.30;35.40;;;;;;5015084;28;20402;-43
2022/08/05 04:06:14;;;;;;;5.03;4.03;;;26.30;35.20;;;;;;5014748;28;20416;-42
2022/08/05 04:08:41;;;;;;;5.90;4.70;;;26.30;35.60;;;;;;5014918;28;20416;-43
2022/08/05 04:11:07;;;;;;;4.30;3.90;;;26.30;35.90;;;;;;5014839;28;20816;-42
2022/08/05 04:13:33;;;;;;;5.70;5.07;;;26.30;35.80;;;;;;5014875;28;20443;-43
2022/08/05 04:15:59;;;;;;;6.60;4.77;;;26.30;35.80;;;;;;5014754;28;20457;-42
2022/08/05 04:18:25;;;;;;;6.10;4.63;;;26.30;35.50;;;;;;5014610;28;20965;-42
2022/08/05 04:20:57;;;;;;;7.13;4.93;;;26.40;35.80;;;;;;5014954;28;20327;-42
2022/08/05 04:23:25;;;;;;;6.93;5.50;;;26.40;35.90;;;;;;5014585;28;20413;-42
2022/08/05 04:25:52;;;;;;;9.97;5.07;;;26.40;36.50;;;;;;5014531;28;20433;-42
2022/08/05 04:28:19;;;;;;;5.23;4.70;;;26.40;36.20;;;;;;5014579;28;20806;-42
2022/08/05 04:30:45;;;;;;;5.13;4.53;;;26.40;36.50;;;;;;5014499;28;20945;-42
2022/08/05 04:33:12;;;;;;;5.03;4.40;;;26.40;36.10;;;;;;5014383;28;20413;-43
2022/08/05 04:35:38;;;;;;;6.43;5.13;;;26.50;35.90;;;;;;5014145;28;20445;-43
2022/08/05 04:38:04;;;;;;;8.77;5.40;;;26.60;36.00;;;;;;5014417;28;20401;-43
2022/08/05 04:40:37;;;;;;;13.03;4.97;;;26.60;36.20;;;;;;5014184;28;20445;-43
2022/08/05 04:43:03;;;;;;;9.10;5.70;;;26.70;36.30;;;;;;5014352;28;20194;-42
2022/08/05 04:45:31;;;;;;;5.57;4.70;;;26.70;36.20;;;;;;5014181;28;20413;-42
2022/08/05 04:48:23;;;;;;;5.80;5.13;;;26.80;36.10;;;;;;5014454;28;20422;-43
2022/08/05 04:50:49;;;;;;;7.90;5.43;;;26.90;36.10;;;;;;5009627;28;20873;-43
2022/08/05 04:53:17;;;;;;;7.63;5.20;;;27.00;36.20;;;;;;5014081;28;20977;-43
2022/08/05 04:55:44;;;;;;;5.10;4.60;;;27.00;36.00;;;;;;5013778;28;20441;-43
2022/08/05 04:58:12;;;;;;;4.23;3.73;;;27.10;36.00;;;;;;5013948;28;20402;-43
2022/08/05 05:00:39;;;;;;;5.70;4.60;;;27.10;35.90;;;;;;5013379;28;20428;-43
2022/08/05 05:03:06;;;;;;;5.30;4.80;;;27.20;36.10;;;;;;5013947;28;20906;-43
2022/08/05 05:05:32;;;;;;;6.90;5.20;;;27.30;36.00;;;;;;5013732;28;20421;-42
2022/08/05 05:08:06;;;;;;;5.27;3.67;;;27.40;35.80;;;;;;5013866;28;20420;-42
2022/08/05 05:10:41;;;;;;;8.40;4.63;;;27.40;35.60;;;;;;5013684;28;20567;-42
2022/08/05 05:13:12;;;;;;;4.50;3.77;;;27.60;35.20;;;;;;5013922;28;20401;-43
2022/08/05 05:15:39;;;;;;;5.80;4.50;;;27.60;34.90;;;;;;5013485;28;20453;-43
2022/08/05 05:18:05;;;;;;;4.07;3.50;;;27.70;34.90;;;;;;5013609;28;20928;-43
2022/08/05 05:20:31;;;;;;;5.27;4.77;;;27.80;34.70;;;;;;5013476;28;20446;-43
2022/08/05 05:22:58;;;;;;;5.30;4.63;;;27.80;34.50;;;;;;5013771;28;20405;-43
2022/08/05 05:25:25;;;;;;;6.83;4.90;;;27.90;34.40;;;;;;5013687;28;20433;-42
2022/08/05 05:27:54;;;;;;;7.37;5.10;;;28.00;34.90;;;;;;5013545;28;20475;-42
2022/08/05 05:30:21;;;;;;;4.90;4.40;;;28.10;34.70;;;;;;5013452;28;21032;-42
2022/08/05 05:32:47;;;;;;;6.20;4.37;;;28.20;34.40;;;;;;5013375;28;20406;-42
2022/08/05 05:35:13;;;;;;;4.03;3.57;;;28.20;34.30;;;;;;5013241;28;20423;-42
2022/08/05 05:37:56;;;;;;;7.30;4.70;;;28.30;34.00;;;;;;5013075;28;20217;-43
2022/08/05 05:40:23;;;;;;;5.73;4.80;;;28.40;34.00;;;;;;5013054;28;20910;-42
2022/08/05 05:42:50;;;;;;;5.10;3.80;;;28.50;34.10;;;;;;5013368;28;20436;-42
2022/08/05 05:45:17;;;;;;;5.30;4.23;;;28.50;34.10;;;;;;5013155;28;20406;-43
2022/08/05 05:47:43;;;;;;;6.97;4.40;;;28.60;34.10;;;;;;5012932;28;20406;-42
2022/08/05 05:50:10;;;;;;;5.10;4.60;;;28.70;33.70;;;;;;5013141;28;20453;-42
2022/08/05 05:52:37;;;;;;;5.93;4.37;;;28.80;33.70;;;;;;5012970;28;20504;-43
2022/08/05 05:55:05;;;;;;;5.47;3.70;;;28.90;33.70;;;;;;5013016;28;20449;-43
2022/08/05 05:57:31;;;;;;;8.00;4.40;;;29.00;33.80;;;;;;5012621;28;20481;-43
2022/08/05 05:59:56;;;;;;;5.20;4.03;;;29.00;33.50;;;;;;5012885;28;20437;-43
2022/08/05 06:02:22;;;;;;;5.10;4.60;;;29.10;33.40;;;;;;5013059;28;20175;-43
2022/08/05 06:04:48;;;;;;;6.07;3.63;;;29.20;33.30;;;;;;5012741;28;20178;-43
2022/08/05 06:07:15;;;;;;;4.53;3.77;;;29.20;33.50;;;;;;5012516;28;20214;-43
2022/08/05 06:09:41;;;;;;;5.40;4.90;;;29.30;33.60;;;;;;5012879;28;20540;-43
2022/08/05 06:12:07;;;;;;;6.10;4.17;;;29.40;33.60;;;;;;5011892;28;20927;-43
2022/08/05 06:14:33;;;;;;;4.73;3.93;;;29.50;33.10;;;;;;5012700;28;20412;-43
2022/08/05 06:16:59;;;;;;;7.00;4.63;;;29.60;32.20;;;;;;5012324;28;20453;-43
2022/08/05 06:19:26;;;;;;;4.97;4.27;;;29.60;32.10;;;;;;5012566;28;20196;-43
2022/08/05 06:21:52;;;;;;;5.47;4.23;;;29.60;31.80;;;;;;4994994;28;20508;-43
2022/08/05 06:24:18;;;;;;;5.00;4.00;;;29.80;31.70;;;;;;5012572;28;20501;-42
2022/08/05 06:26:44;;;;;;;5.70;4.13;;;29.80;31.70;;;;;;5012449;28;20186;-43
2022/08/05 06:29:10;;;;;;;10.03;4.90;;;29.90;31.10;;;;;;5012603;28;20512;-43
2022/08/05 06:31:37;;;;;;;5.30;4.53;;;30.00;31.10;;;;;;5012443;28;20409;-43
2022/08/05 06:34:04;;;;;;;6.93;4.47;;;30.10;31.10;;;;;;5012698;28;20505;-43
2022/08/05 06:36:30;;;;;;;6.20;4.30;;;30.20;31.20;;;;;;5012064;28;20461;-43
2022/08/05 06:38:55;;;;;;;4.90;4.00;;;30.20;30.80;;;;;;5012312;28;20532;-43
2022/08/05 06:41:21;;;;;;;5.87;4.33;;;30.30;31.30;;;;;;5012599;28;20832;-44
2022/08/05 06:43:48;;;;;;;4.03;3.63;;;30.40;31.70;;;;;;5012406;28;20228;-43
2022/08/05 06:46:14;;;;;;;6.30;4.17;;;30.60;30.90;;;;;;5011934;28;20405;-43
2022/08/05 06:48:40;;;;;;;5.20;3.97;;;30.60;30.60;;;;;;5012092;28;20463;-43
2022/08/05 06:51:06;;;;;;;8.40;4.17;;;30.70;30.60;;;;;;5012218;28;20413;-43
2022/08/05 06:53:32;;;;;;;5.50;3.23;;;30.90;30.40;;;;;;5012130;28;20412;-42
2022/08/05 06:55:59;;;;;;;5.87;3.17;;;31.00;30.20;;;;;;5011864;28;20450;-43
2022/08/05 06:58:26;;;;;;;5.00;3.27;;;31.10;29.80;;;;;;5012094;28;20907;-43
2022/08/05 07:00:52;;;;;;;4.10;3.27;;;31.20;30.30;;;;;;5012145;28;20459;-43
2022/08/05 07:03:18;;;;;;;4.10;2.67;;;31.20;30.30;;;;;;5012069;28;21127;-44
2022/08/05 07:05:44;;;;;;;4.37;3.50;;;31.20;30.50;;;;;;5012041;28;20437;-43
2022/08/05 07:08:10;;;;;;;7.43;3.17;;;31.20;31.20;;;;;;5012192;28;20406;-43
2022/08/05 07:10:36;;;;;;;4.23;3.63;;;31.30;31.90;;;;;;5012026;28;20828;-44
2022/08/05 07:18:30;;;;;;;9.33;3.50;;;31.50;32.20;;;;;;5012248;28;20455;-42
2022/08/05 07:20:56;;;;;;;8.03;3.87;;;31.50;32.00;;;;;;5011936;28;20766;-43
2022/08/05 07:23:22;;;;;;;3.80;3.50;;;31.50;32.20;;;;;;5012801;28;20168;-43
2022/08/05 07:25:48;;;;;;;9.43;4.10;;;31.50;32.40;;;;;;5015532;28;20174;-43
2022/08/05 07:28:13;;;;;;;7.97;3.73;;;31.50;32.40;;;;;;5015621;28;20389;-43
2022/08/05 07:30:39;;;;;;;6.03;4.43;;;31.50;32.70;;;;;;5015435;28;20439;-43
2022/08/05 07:33:08;;;;;;;9.60;4.07;;;31.50;32.40;;;;;;5015749;28;20173;-44
2022/08/05 07:35:34;;;;;;;5.30;4.80;;;31.50;32.70;;;;;;5015251;28;20470;-43
2022/08/05 07:37:59;;;;;;;4.67;3.50;;;31.50;33.10;;;;;;5015432;28;20415;-43
2022/08/05 07:40:25;;;;;;;5.50;3.87;;;31.50;33.10;;;;;;5015306;28;20790;-43
2022/08/05 07:42:51;;;;;;;5.37;4.07;;;31.50;33.10;;;;;;5015645;28;20877;-43
2022/08/05 07:45:17;;;;;;;5.07;4.40;;;31.60;33.10;;;;;;5015217;28;20766;-44
2022/08/05 07:47:43;;;;;;;5.23;4.10;;;31.60;33.40;;;;;;5015274;28;20280;-43
2022/08/05 07:50:09;;;;;;;5.33;4.83;;;31.70;33.80;;;;;;5015275;28;20500;-43
2022/08/05 07:52:39;;;;;;;4.57;4.17;;;31.80;33.80;;;;;;5015266;28;20669;-43
2022/08/05 07:55:05;;;;;;;5.73;4.43;;;31.90;33.70;;;;;;5015134;28;20416;-43
2022/08/05 07:57:32;;;;;;;5.63;3.70;;;32.00;33.60;;;;;;5014994;28;20538;-44
2022/08/05 07:59:57;;;;;;;5.80;4.17;;;32.00;33.60;;;;;;5014930;28;20781;-44
2022/08/05 08:02:25;;;;;;;5.60;3.97;;;32.10;33.60;;;;;;5015286;28;20413;-45
2022/08/05 08:04:51;;;;;;;5.27;4.30;;;32.20;33.40;;;;;;5015319;28;20256;-43
2022/08/05 08:07:17;;;;;;;4.90;4.40;;;32.20;33.20;;;;;;5014788;28;20435;-43
2022/08/05 08:09:44;;;;;;;5.10;4.00;;;32.20;33.30;;;;;;5014737;28;20429;-43
2022/08/05 08:12:14;;;;;;;5.07;4.30;;;32.30;33.50;;;;;;5014779;28;20417;-44
2022/08/05 08:14:42;;;;;;;4.27;3.87;;;32.30;33.50;;;;;;5014958;28;20444;-42
2022/08/05 08:17:09;;;;;;;5.87;5.27;;;32.30;33.40;;;;;;5014565;28;20453;-43
2022/08/05 08:19:39;;;;;;;4.80;4.03;;;32.20;33.10;;;;;;5014523;28;20429;-43
2022/08/05 08:22:06;;;;;;;6.30;4.93;;;32.20;33.40;;;;;;5014631;28;20409;-43
2022/08/05 08:24:33;;;;;;;8.57;4.33;;;32.20;33.70;;;;;;5014650;28;20449;-43
2022/08/05 08:26:59;;;;;;;5.30;4.00;;;32.20;33.70;;;;;;5014614;28;20416;-44
2022/08/05 08:29:24;;;;;;;6.30;3.90;;;32.30;33.40;;;;;;5014621;28;20436;-44
2022/08/05 08:31:51;;;;;;;7.30;4.63;;;32.30;33.50;;;;;;5014748;28;20543;-43
2022/08/05 08:34:18;;;;;;;3.87;3.47;;;32.30;33.30;;;;;;5014375;28;20179;-43
2022/08/05 08:36:44;;;;;;;6.60;3.97;;;32.30;33.50;;;;;;5013299;28;20503;-44
2022/08/05 08:39:10;;;;;;;8.13;4.60;;;32.40;33.80;;;;;;5014548;28;20474;-44
2022/08/05 08:41:38;;;;;;;4.27;3.60;;;32.40;33.70;;;;;;5014614;28;20844;-42
2022/08/05 08:44:05;;;;;;;4.73;3.90;;;32.50;33.60;;;;;;5014194;28;20217;-42
2022/08/05 08:46:31;;;;;;;5.53;4.10;;;32.60;33.30;;;;;;5014057;28;20902;-43
2022/08/05 08:48:58;;;;;;;6.20;3.57;;;32.70;33.00;;;;;;5014169;28;20517;-42
2022/08/05 08:51:27;;;;;;;4.83;4.40;;;32.70;32.30;;;;;;5014152;28;20225;-41
2022/08/05 08:53:53;;;;;;;7.93;3.97;;;32.60;32.30;;;;;;5014315;28;20424;-43
2022/08/05 08:56:20;;;;;;;6.00;3.60;;;32.50;32.80;;;;;;5013776;28;20452;-43
2022/08/05 08:58:46;;;;;;;4.87;3.90;;;32.60;32.90;;;;;;5013934;28;20513;-40
2022/08/05 09:01:12;;;;;;;4.40;3.57;;;32.70;32.70;;;;;;5014264;28;20544;-43
2022/08/05 09:03:40;;;;;;;4.67;4.00;;;32.90;32.60;;;;;;5013937;28;20448;-42
2022/08/05 09:06:06;;;;;;;5.20;4.37;;;32.90;32.10;;;;;;5013513;28;20468;-42
2022/08/05 09:08:32;;;;;;;4.20;3.80;;;33.00;32.50;;;;;;5013670;28;20751;-43
2022/08/05 09:10:58;;;;;;;4.30;3.67;;;33.10;33.30;;;;;;5013776;28;20416;-42
2022/08/05 09:13:24;;;;;;;4.87;4.37;;;33.10;32.70;;;;;;5013600;28;20410;-43
2022/08/05 09:15:51;;;;;;;5.20;4.00;;;33.30;32.60;;;;;;5013418;28;20670;-42
2022/08/05 09:18:17;;;;;;;5.10;3.83;;;33.40;32.20;;;;;;5013608;28;20406;-44
2022/08/05 09:20:44;;;;;;;5.70;3.80;;;33.40;31.90;;;;;;5013652;28;20505;-44
2022/08/05 09:23:19;;;;;;;4.50;3.50;;;33.50;32.00;;;;;;5013845;28;20502;-43
2022/08/05 09:26:04;;;;;;;6.20;3.47;;;33.50;32.00;;;;;;5013331;28;20417;-43
2022/08/05 09:28:31;;;;;;;4.50;3.50;;;33.60;31.70;;;;;;5013367;28;20424;-43
2022/08/05 09:31:04;;;;;;;8.30;4.10;;;33.70;31.90;;;;;;5020896;23;21035;-42
2022/08/05 09:33:31;;;;;;;4.60;3.60;;;33.70;31.70;;;;;;5024494;28;20915;-43
2022/08/05 09:36:00;;;;;;;3.90;3.50;;;33.70;32.00;;;;;;5032987;28;20866;-44
2022/08/05 09:38:26;;;;;;;6.97;4.27;;;33.80;32.10;;;;;;5032931;28;20900;-43
2022/08/05 09:40:55;;;;;;;6.70;3.57;;;33.90;32.00;;;;;;5032931;28;20539;-42
2022/08/05 09:43:35;;;;;;;4.80;3.63;;;34.00;32.30;;;;;;5033107;28;20418;-43
2022/08/05 09:46:04;;;;;;;5.50;3.93;;;34.20;32.70;;;;;;5032544;28;20912;-43
2022/08/05 09:48:32;;;;;;;5.40;3.40;;;34.30;32.00;;;;;;5032880;28;20405;-43
2022/08/05 09:51:00;;;;;;;6.50;3.90;;;34.40;31.40;;;;;;5032632;28;20423;-43
2022/08/05 09:53:26;;;;;;;5.43;3.73;;;34.30;32.00;;;;;;5032759;28;20421;-42
2022/08/05 09:55:57;;;;;;;3.90;3.17;;;34.40;32.00;;;;;;5032457;28;20462;-44
2022/08/05 09:58:24;;;;;;;4.70;3.47;;;34.60;32.20;;;;;;5032653;28;20745;-44
2022/08/05 10:01:07;;;;;;;4.37;3.70;;;34.60;32.50;;;;;;5032795;28;20471;-43
2022/08/05 10:03:33;;;;;;;7.10;3.80;;;34.80;31.60;;;;;;5032515;28;20829;-44
2022/08/05 10:06:18;;;;;;;6.00;4.23;;;34.80;31.20;;;;;;5032282;28;20907;-44
2022/08/05 10:08:44;;;;;;;6.70;4.90;;;34.80;31.00;;;;;;5032753;28;20404;-43
2022/08/05 10:11:17;;;;;;;5.90;4.63;;;34.90;30.50;;;;;;5032257;28;20435;-43
2022/08/05 10:13:43;;;;;;;4.90;3.70;;;34.90;30.70;;;;;;5032452;28;20734;-43
2022/08/05 10:16:32;;;;;;;4.60;4.20;;;35.00;31.30;;;;;;5032007;28;20595;-44
2022/08/05 10:19:00;;;;;;;5.57;4.80;;;35.00;30.30;;;;;;5032659;28;20477;-44
2022/08/05 10:21:26;;;;;;;5.53;4.13;;;35.00;31.20;;;;;;5032141;28;20542;-44
2022/08/05 10:23:53;;;;;;;5.10;4.60;;;35.10;30.20;;;;;;5032295;28;20419;-44
2022/08/05 10:26:19;;;;;;;4.17;3.77;;;35.10;30.30;;;;;;5032178;28;20423;-43
2022/08/05 10:28:46;;;;;;;4.90;4.47;;;35.20;29.90;;;;;;5032145;28;20409;-42
2022/08/05 10:31:15;;;;;;;5.20;4.70;;;35.20;29.90;;;;;;5032066;28;20447;-41
2022/08/05 10:33:41;;;;;;;5.20;4.70;;;35.30;29.80;;;;;;5032242;28;20934;-44
2022/08/05 10:36:07;;;;;;;4.03;3.47;;;35.40;28.90;;;;;;5032050;28;20458;-44
2022/08/05 10:38:35;;;;;;;6.53;4.63;;;35.30;29.20;;;;;;5032401;28;20927;-44
2022/08/05 10:41:26;;;;;;;5.03;4.17;;;35.40;29.20;;;;;;5031806;28;20995;-43
2022/08/05 10:43:58;;;;;;;7.93;5.23;;;35.40;29.60;;;;;;5032042;28;20946;-44
2022/08/05 10:46:41;;;;;;;5.00;4.50;;;35.60;29.20;;;;;;5032121;28;20396;-44
2022/08/05 10:49:07;;;;;;;6.23;4.40;;;35.70;29.10;;;;;;5032008;28;20389;-44
2022/08/05 10:51:45;;;;;;;5.40;4.90;;;35.80;28.80;;;;;;5031904;28;20433;-43
2022/08/05 10:54:11;;;;;;;6.13;4.47;;;35.90;28.80;;;;;;5032071;28;20405;-44
2022/08/05 10:56:49;;;;;;;6.50;4.37;;;35.90;28.80;;;;;;5031679;28;20448;-43
2022/08/05 10:59:28;;;;;;;4.77;4.30;;;36.00;29.30;;;;;;5034134;28;20950;-43
2022/08/05 11:02:12;;;;;;;4.70;4.20;;;36.20;29.50;;;;;;5035909;28;20424;-44
2022/08/05 11:04:53;;;;;;;6.93;4.00;;;36.20;29.20;;;;;;5035875;28;20409;-43
2022/08/05 11:07:20;;;;;;;5.83;4.30;;;36.30;29.10;;;;;;5035910;28;20784;-43
2022/08/05 11:09:50;;;;;;;5.07;4.40;;;36.30;28.90;;;;;;5035797;28;20427;-43
2022/08/05 11:12:25;;;;;;;4.20;3.80;;;36.40;28.50;;;;;;5035623;28;20459;-42
2022/08/05 11:15:14;;;;;;;4.73;4.23;;;36.40;27.90;;;;;;5035787;28;20404;-43
2022/08/05 11:17:42;;;;;;;5.37;4.57;;;36.50;27.70;;;;;;5035475;28;20448;-44
2022/08/05 11:20:38;;;;;;;5.40;4.63;;;36.40;27.50;;;;;;5035594;28;20440;-44
2022/08/05 11:23:27;;;;;;;5.13;4.63;;;36.50;27.60;;;;;;5035585;28;20396;-43
2022/08/05 11:26:06;;;;;;;4.93;4.37;;;36.60;27.50;;;;;;5035340;28;20404;-43
2022/08/05 11:28:31;;;;;;;9.50;5.00;;;36.60;27.10;;;;;;5035489;28;20950;-42
2022/08/05 11:30:57;;;;;;;5.37;4.57;;;36.70;27.30;;;;;;5035184;28;20445;-43
2022/08/05 11:33:31;;;;;;;4.60;4.10;;;36.90;27.60;;;;;;5035655;28;20967;-42
2022/08/05 11:35:59;;;;;;;5.73;3.90;;;37.10;27.00;;;;;;5035085;28;20181;-44
2022/08/05 11:38:43;;;;;;;5.33;4.10;;;37.20;27.20;;;;;;5035541;28;20492;-42
2022/08/05 11:41:17;;;;;;;6.20;3.90;;;37.30;26.40;;;;;;5035227;28;20432;-44
2022/08/05 11:43:51;;;;;;;4.90;4.50;;;37.30;26.60;;;;;;5035177;28;20920;-43
2022/08/05 11:46:38;;;;;;;6.30;4.40;;;37.30;26.20;;;;;;5034948;28;20408;-43
2022/08/05 11:49:05;;;;;;;4.50;3.87;;;37.20;26.50;;;;;;5034625;28;20859;-42
2022/08/05 11:51:31;;;;;;;5.30;4.57;;;37.20;26.90;;;;;;5035076;28;20432;-44
2022/08/05 11:54:00;;;;;;;5.80;3.47;;;37.40;26.80;;;;;;5035202;28;20404;-44
2022/08/05 11:56:41;;;;;;;5.93;4.50;;;37.50;26.70;;;;;;5034790;28;20245;-43
2022/08/05 11:59:13;;;;;;;4.50;3.93;;;37.70;26.50;;;;;;5034917;28;20401;-44
2022/08/05 12:01:52;;;;;;;7.37;4.23;;;37.70;26.00;;;;;;5035108;28;20433;-43
2022/08/05 12:04:18;;;;;;;5.47;4.00;;;37.90;25.60;;;;;;5034770;28;20389;-42
2022/08/05 12:06:44;;;;;;;4.00;3.60;;;37.90;25.80;;;;;;5034515;28;20828;-44
2022/08/05 12:09:10;;;;;;;4.73;4.20;;;38.00;26.50;;;;;;5034397;28;20432;-43
2022/08/05 12:11:37;;;;;;;4.40;3.70;;;38.00;26.20;;;;;;5033801;28;20433;-43
2022/08/05 12:14:09;;;;;;;3.70;3.30;;;38.00;26.20;;;;;;5034586;28;20932;-44
2022/08/05 12:16:38;;;;;;;4.03;3.40;;;38.00;24.20;;;;;;5034545;28;20478;-44
2022/08/05 12:19:04;;;;;;;7.23;3.43;;;37.90;24.00;;;;;;5034530;28;20523;-43
2022/08/05 12:21:33;;;;;;;5.30;3.50;;;37.90;24.30;;;;;;5034412;28;20502;-43
2022/08/05 12:24:12;;;;;;;4.63;3.37;;;37.80;24.30;;;;;;5034423;28;20409;-44
2022/08/05 12:26:43;;;;;;;4.93;2.93;;;37.70;23.60;;;;;;5034278;28;20791;-44
2022/08/05 12:29:23;;;;;;;4.30;3.20;;;37.60;24.30;;;;;;5034400;28;20424;-43
2022/08/05 12:31:55;;;;;;;3.93;3.10;;;37.60;24.80;;;;;;5034082;28;20922;-42
2022/08/05 12:34:30;;;;;;;3.73;3.23;;;37.60;23.90;;;;;;5034609;28;20430;-43
2022/08/05 12:37:10;;;;;;;3.37;3.07;;;37.50;23.40;;;;;;5034117;28;20456;-44
2022/08/05 12:39:38;;;;;;;3.17;2.30;;;37.40;24.30;;;;;;5034107;28;20400;-44
2022/08/05 12:42:18;;;;;;;4.10;3.00;;;37.30;25.00;;;;;;5033966;28;20979;-43
2022/08/05 12:44:44;;;;;;;3.40;2.77;;;37.20;24.80;;;;;;5034416;28;20393;-43
2022/08/05 12:47:12;;;;;;;4.50;3.27;;;37.20;24.50;;;;;;5033850;28;20555;-43
2022/08/05 12:49:43;;;;;;;4.00;3.17;;;37.20;24.20;;;;;;5034129;28;20413;-43
2022/08/05 12:52:17;;;;;;;3.57;2.90;;;37.40;24.20;;;;;;5033841;28;20428;-43
2022/08/05 12:54:45;;;;;;;3.23;2.70;;;37.60;24.40;;;;;;5033886;28;20388;-43
2022/08/05 12:57:12;;;;;;;3.23;2.57;;;37.70;23.60;;;;;;5033650;28;20956;-42
2022/08/05 12:59:54;;;;;;;3.47;2.93;;;38.00;24.40;;;;;;5033844;28;20401;-43
2022/08/05 13:02:23;;;;;;;3.10;2.80;;;38.30;23.90;;;;;;5016419;28;20901;-43